sensor_id;sensor_type;location;lat;lon;timestamp;temperature;humidity
54082;DHT22;39986;50.770;0.266;2023-08-07T00:02:25;15.30;99.90
54082;DHT22;39986;50.770;0.266;2023-08-07T00:04:50;15.20;99.90
54082;DHT22;39986;50.770;0.266;2023-08-07T00:07:16;15.20;99.90
54082;DHT22;39986;50.770;0.266;2023-08-07T00:09:41;15.20;99.90
54082;DHT22;39986;50.770;0.266;2023-08-07T00:12:07;15.20;99.90
54082;DHT22;39986;50.770;0.266;2023-08-07T00:14:32;15.20;99.90
54082;DHT22;39986;50.770;0.266;2023-08-07T00:16:58;15.10;99.90
54082;DHT22;39986;50.770;0.266;2023-08-07T00:19:23;15.10;99.90
54082;DHT22;39986;50.770;0.266;2023-08-07T00:21:49;15.00;99.90
54082;DHT22;39986;50.770;0.266;2023-08-07T00:24:14;14.90;99.90
54082;DHT22;39986;50.770;0.266;2023-08-07T00:26:40;14.90;99.90
54082;DHT22;39986;50.770;0.266;2023-08-07T00:29:05;14.90;99.90
54082;DHT22;39986;50.770;0.266;2023-08-07T00:31:31;15.00;99.90
54082;DHT22;39986;50.770;0.266;2023-08-07T00:33:57;14.90;99.90
54082;DHT22;39986;50.770;0.266;2023-08-07T00:36:22;14.90;99.90
54082;DHT22;39986;50.770;0.266;2023-08-07T00:38:48;14.90;99.90
54082;DHT22;39986;50.770;0.266;2023-08-07T00:41:16;14.80;99.90
54082;DHT22;39986;50.770;0.266;2023-08-07T00:43:41;14.90;99.90
54082;DHT22;39986;50.770;0.266;2023-08-07T00:46:07;14.80;99.90
54082;DHT22;39986;50.770;0.266;2023-08-07T00:48:32;14.80;99.90
54082;DHT22;39986;50.770;0.266;2023-08-07T00:50:58;14.80;99.90
54082;DHT22;39986;50.770;0.266;2023-08-07T00:53:24;14.80;99.90
54082;DHT22;39986;50.770;0.266;2023-08-07T00:55:50;14.80;99.90
54082;DHT22;39986;50.770;0.266;2023-08-07T00:58:16;14.70;99.90
54082;DHT22;39986;50.770;0.266;2023-08-07T01:00:41;14.80;99.90
54082;DHT22;39986;50.770;0.266;2023-08-07T01:03:08;14.70;99.90
54082;DHT22;39986;50.770;0.266;2023-08-07T01:05:33;14.70;99.90
54082;DHT22;39986;50.770;0.266;2023-08-07T01:07:59;14.70;99.90
54082;DHT22;39986;50.770;0.266;2023-08-07T01:10:30;14.80;99.90
54082;DHT22;39986;50.770;0.266;2023-08-07T01:13:00;14.80;99.90
54082;DHT22;39986;50.770;0.266;2023-08-07T01:15:30;14.70;99.90
54082;DHT22;39986;50.770;0.266;2023-08-07T01:17:56;14.70;99.90
54082;DHT22;39986;50.770;0.266;2023-08-07T01:20:21;14.60;99.90
54082;DHT22;39986;50.770;0.266;2023-08-07T01:22:47;14.60;99.90
54082;DHT22;39986;50.770;0.266;2023-08-07T01:25:13;14.60;99.90
54082;DHT22;39986;50.770;0.266;2023-08-07T01:27:55;14.60;99.90
54082;DHT22;39986;50.770;0.266;2023-08-07T01:30:29;14.60;99.90
54082;DHT22;39986;50.770;0.266;2023-08-07T01:35:34;14.60;99.90
54082;DHT22;39986;50.770;0.266;2023-08-07T01:38:01;14.60;99.90
54082;DHT22;39986;50.770;0.266;2023-08-07T01:40:28;14.60;99.90
54082;DHT22;39986;50.770;0.266;2023-08-07T01:42:53;14.40;99.90
54082;DHT22;39986;50.770;0.266;2023-08-07T01:45:23;14.50;99.90
54082;DHT22;39986;50.770;0.266;2023-08-07T01:47:49;14.50;99.90
54082;DHT22;39986;50.770;0.266;2023-08-07T01:50:14;14.50;99.90
54082;DHT22;39986;50.770;0.266;2023-08-07T01:52:40;14.50;99.90
54082;DHT22;39986;50.770;0.266;2023-08-07T01:55:05;14.50;99.90
54082;DHT22;39986;50.770;0.266;2023-08-07T01:57:31;14.50;99.90
54082;DHT22;39986;50.770;0.266;2023-08-07T01:59:57;14.50;99.90
54082;DHT22;39986;50.770;0.266;2023-08-07T02:02:22;14.50;99.90
54082;DHT22;39986;50.770;0.266;2023-08-07T02:04:48;14.50;99.90
54082;DHT22;39986;50.770;0.266;2023-08-07T02:07:14;14.40;99.90
54082;DHT22;39986;50.770;0.266;2023-08-07T02:09:39;14.40;99.90
54082;DHT22;39986;50.770;0.266;2023-08-07T02:12:05;14.40;99.90
54082;DHT22;39986;50.770;0.266;2023-08-07T02:14:31;14.40;99.90
54082;DHT22;39986;50.770;0.266;2023-08-07T02:16:56;14.40;99.90
54082;DHT22;39986;50.770;0.266;2023-08-07T02:19:22;14.40;99.90
54082;DHT22;39986;50.770;0.266;2023-08-07T02:21:48;14.30;99.90
54082;DHT22;39986;50.770;0.266;2023-08-07T02:24:14;14.40;99.90
54082;DHT22;39986;50.770;0.266;2023-08-07T02:26:39;14.30;99.90
54082;DHT22;39986;50.770;0.266;2023-08-07T02:29:05;14.30;99.90
54082;DHT22;39986;50.770;0.266;2023-08-07T02:31:32;14.30;99.90
54082;DHT22;39986;50.770;0.266;2023-08-07T02:33:58;14.20;99.90
54082;DHT22;39986;50.770;0.266;2023-08-07T02:36:23;14.20;99.90
54082;DHT22;39986;50.770;0.266;2023-08-07T02:38:49;14.20;99.90
54082;DHT22;39986;50.770;0.266;2023-08-07T02:41:14;14.20;99.90
54082;DHT22;39986;50.770;0.266;2023-08-07T02:43:40;14.20;99.90
54082;DHT22;39986;50.770;0.266;2023-08-07T02:46:05;14.20;99.90
54082;DHT22;39986;50.770;0.266;2023-08-07T02:48:31;14.10;99.90
54082;DHT22;39986;50.770;0.266;2023-08-07T02:50:56;14.20;99.90
54082;DHT22;39986;50.770;0.266;2023-08-07T02:53:22;14.10;99.90
54082;DHT22;39986;50.770;0.266;2023-08-07T02:55:47;14.10;99.90
54082;DHT22;39986;50.770;0.266;2023-08-07T02:58:13;14.10;99.90
54082;DHT22;39986;50.770;0.266;2023-08-07T03:00:38;14.10;99.90
54082;DHT22;39986;50.770;0.266;2023-08-07T03:03:04;14.00;99.90
54082;DHT22;39986;50.770;0.266;2023-08-07T03:05:29;14.00;99.90
54082;DHT22;39986;50.770;0.266;2023-08-07T03:07:55;14.10;99.90
54082;DHT22;39986;50.770;0.266;2023-08-07T03:10:20;14.10;99.90
54082;DHT22;39986;50.770;0.266;2023-08-07T03:12:46;14.10;99.90
54082;DHT22;39986;50.770;0.266;2023-08-07T03:15:11;14.10;99.90
54082;DHT22;39986;50.770;0.266;2023-08-07T03:17:37;14.10;99.90
54082;DHT22;39986;50.770;0.266;2023-08-07T03:20:03;14.00;99.90
54082;DHT22;39986;50.770;0.266;2023-08-07T03:22:29;14.00;99.90
54082;DHT22;39986;50.770;0.266;2023-08-07T03:24:55;14.00;99.90
54082;DHT22;39986;50.770;0.266;2023-08-07T03:27:20;14.00;99.90
54082;DHT22;39986;50.770;0.266;2023-08-07T03:29:46;14.00;99.90
54082;DHT22;39986;50.770;0.266;2023-08-07T03:32:11;13.90;99.90
54082;DHT22;39986;50.770;0.266;2023-08-07T03:34:37;13.90;99.90
54082;DHT22;39986;50.770;0.266;2023-08-07T03:37:02;13.90;99.90
54082;DHT22;39986;50.770;0.266;2023-08-07T03:39:28;13.90;99.90
54082;DHT22;39986;50.770;0.266;2023-08-07T03:41:53;13.90;99.90
54082;DHT22;39986;50.770;0.266;2023-08-07T03:44:19;13.90;99.90
54082;DHT22;39986;50.770;0.266;2023-08-07T03:46:44;13.90;99.90
54082;DHT22;39986;50.770;0.266;2023-08-07T03:49:10;13.90;99.90
54082;DHT22;39986;50.770;0.266;2023-08-07T03:51:35;13.90;99.90
54082;DHT22;39986;50.770;0.266;2023-08-07T03:54:01;13.80;99.90
54082;DHT22;39986;50.770;0.266;2023-08-07T03:56:27;13.90;99.90
54082;DHT22;39986;50.770;0.266;2023-08-07T03:58:52;13.90;99.90
54082;DHT22;39986;50.770;0.266;2023-08-07T04:01:18;13.90;99.90
54082;DHT22;39986;50.770;0.266;2023-08-07T04:03:46;13.80;99.90
54082;DHT22;39986;50.770;0.266;2023-08-07T04:06:11;13.80;99.90
54082;DHT22;39986;50.770;0.266;2023-08-07T04:08:41;13.80;99.90
54082;DHT22;39986;50.770;0.266;2023-08-07T04:11:07;13.80;99.90
54082;DHT22;39986;50.770;0.266;2023-08-07T04:13:32;13.70;99.90
54082;DHT22;39986;50.770;0.266;2023-08-07T04:15:58;13.70;99.90
54082;DHT22;39986;50.770;0.266;2023-08-07T04:18:24;13.80;99.90
54082;DHT22;39986;50.770;0.266;2023-08-07T04:20:50;13.70;99.90
54082;DHT22;39986;50.770;0.266;2023-08-07T04:23:16;13.70;99.90
54082;DHT22;39986;50.770;0.266;2023-08-07T04:25:42;13.70;99.90
54082;DHT22;39986;50.770;0.266;2023-08-07T04:28:07;13.70;99.90
54082;DHT22;39986;50.770;0.266;2023-08-07T04:30:33;13.70;99.90
54082;DHT22;39986;50.770;0.266;2023-08-07T04:32:59;13.70;99.90
54082;DHT22;39986;50.770;0.266;2023-08-07T04:35:24;13.70;99.90
54082;DHT22;39986;50.770;0.266;2023-08-07T04:37:50;13.70;99.90
54082;DHT22;39986;50.770;0.266;2023-08-07T04:40:15;13.70;99.90
54082;DHT22;39986;50.770;0.266;2023-08-07T04:42:41;13.80;99.90
54082;DHT22;39986;50.770;0.266;2023-08-07T04:45:07;13.70;99.90
54082;DHT22;39986;50.770;0.266;2023-08-07T04:47:32;13.80;99.90
54082;DHT22;39986;50.770;0.266;2023-08-07T04:49:58;13.70;99.90
54082;DHT22;39986;50.770;0.266;2023-08-07T04:52:23;13.80;99.90
54082;DHT22;39986;50.770;0.266;2023-08-07T04:54:49;13.80;99.90
54082;DHT22;39986;50.770;0.266;2023-08-07T04:57:14;13.80;99.90
54082;DHT22;39986;50.770;0.266;2023-08-07T04:59:40;13.80;99.90
54082;DHT22;39986;50.770;0.266;2023-08-07T05:02:05;13.80;99.90
54082;DHT22;39986;50.770;0.266;2023-08-07T05:04:31;13.90;99.90
54082;DHT22;39986;50.770;0.266;2023-08-07T05:06:57;14.00;99.90
54082;DHT22;39986;50.770;0.266;2023-08-07T05:09:22;14.50;99.90
54082;DHT22;39986;50.770;0.266;2023-08-07T05:11:48;15.10;99.90
54082;DHT22;39986;50.770;0.266;2023-08-07T05:14:13;15.50;99.90
54082;DHT22;39986;50.770;0.266;2023-08-07T05:16:39;16.00;99.90
54082;DHT22;39986;50.770;0.266;2023-08-07T05:19:05;16.10;99.90
54082;DHT22;39986;50.770;0.266;2023-08-07T05:21:30;16.10;99.90
54082;DHT22;39986;50.770;0.266;2023-08-07T05:23:56;16.00;99.90
54082;DHT22;39986;50.770;0.266;2023-08-07T05:26:21;16.50;99.90
54082;DHT22;39986;50.770;0.266;2023-08-07T05:28:47;17.50;99.90
54082;DHT22;39986;50.770;0.266;2023-08-07T05:31:12;17.80;99.90
54082;DHT22;39986;50.770;0.266;2023-08-07T05:33:38;17.80;99.90
54082;DHT22;39986;50.770;0.266;2023-08-07T05:36:04;17.50;99.90
54082;DHT22;39986;50.770;0.266;2023-08-07T05:38:31;18.00;99.90
54082;DHT22;39986;50.770;0.266;2023-08-07T05:40:57;18.80;99.90
54082;DHT22;39986;50.770;0.266;2023-08-07T05:43:23;19.80;99.90
54082;DHT22;39986;50.770;0.266;2023-08-07T05:45:48;20.40;99.90
54082;DHT22;39986;50.770;0.266;2023-08-07T05:48:14;21.00;99.90
54082;DHT22;39986;50.770;0.266;2023-08-07T05:50:42;21.30;99.90
54082;DHT22;39986;50.770;0.266;2023-08-07T05:53:07;21.50;99.90
54082;DHT22;39986;50.770;0.266;2023-08-07T05:55:33;21.90;99.90
54082;DHT22;39986;50.770;0.266;2023-08-07T05:57:59;22.90;99.90
54082;DHT22;39986;50.770;0.266;2023-08-07T06:00:24;23.00;99.90
54082;DHT22;39986;50.770;0.266;2023-08-07T06:02:50;22.30;99.90
54082;DHT22;39986;50.770;0.266;2023-08-07T06:05:16;21.20;99.90
54082;DHT22;39986;50.770;0.266;2023-08-07T06:07:42;20.30;99.90
54082;DHT22;39986;50.770;0.266;2023-08-07T06:10:07;19.50;99.90
54082;DHT22;39986;50.770;0.266;2023-08-07T06:12:33;18.90;99.90
54082;DHT22;39986;50.770;0.266;2023-08-07T06:14:59;18.40;99.90
54082;DHT22;39986;50.770;0.266;2023-08-07T06:17:24;18.10;99.90
54082;DHT22;39986;50.770;0.266;2023-08-07T06:19:50;17.80;99.90
54082;DHT22;39986;50.770;0.266;2023-08-07T06:22:15;17.70;99.90
54082;DHT22;39986;50.770;0.266;2023-08-07T06:24:41;17.50;99.90
54082;DHT22;39986;50.770;0.266;2023-08-07T06:27:06;17.50;99.90
54082;DHT22;39986;50.770;0.266;2023-08-07T06:29:32;17.40;99.90
54082;DHT22;39986;50.770;0.266;2023-08-07T06:31:57;17.30;99.90
54082;DHT22;39986;50.770;0.266;2023-08-07T06:34:23;17.40;99.90
54082;DHT22;39986;50.770;0.266;2023-08-07T06:36:49;17.40;99.90
54082;DHT22;39986;50.770;0.266;2023-08-07T06:39:14;17.40;99.90
54082;DHT22;39986;50.770;0.266;2023-08-07T06:41:40;17.40;99.90
54082;DHT22;39986;50.770;0.266;2023-08-07T06:44:05;17.30;99.90
54082;DHT22;39986;50.770;0.266;2023-08-07T06:46:31;17.30;99.90
54082;DHT22;39986;50.770;0.266;2023-08-07T06:48:56;17.30;99.90
54082;DHT22;39986;50.770;0.266;2023-08-07T06:51:22;17.30;99.90
54082;DHT22;39986;50.770;0.266;2023-08-07T06:53:47;17.30;99.90
54082;DHT22;39986;50.770;0.266;2023-08-07T06:56:13;17.40;99.90
54082;DHT22;39986;50.770;0.266;2023-08-07T06:58:38;17.50;99.90
54082;DHT22;39986;50.770;0.266;2023-08-07T07:01:04;17.40;99.90
54082;DHT22;39986;50.770;0.266;2023-08-07T07:03:29;17.40;99.90
54082;DHT22;39986;50.770;0.266;2023-08-07T07:05:55;17.50;99.90
54082;DHT22;39986;50.770;0.266;2023-08-07T07:08:20;17.50;99.90
54082;DHT22;39986;50.770;0.266;2023-08-07T07:10:47;17.60;99.90
54082;DHT22;39986;50.770;0.266;2023-08-07T07:13:12;17.60;99.90
54082;DHT22;39986;50.770;0.266;2023-08-07T07:15:38;17.70;99.90
54082;DHT22;39986;50.770;0.266;2023-08-07T07:18:03;17.80;99.90
54082;DHT22;39986;50.770;0.266;2023-08-07T07:20:29;17.90;99.90
54082;DHT22;39986;50.770;0.266;2023-08-07T07:22:54;18.00;99.90
54082;DHT22;39986;50.770;0.266;2023-08-07T07:25:20;18.00;99.90
54082;DHT22;39986;50.770;0.266;2023-08-07T07:27:45;18.20;99.90
54082;DHT22;39986;50.770;0.266;2023-08-07T07:30:11;18.20;99.90
54082;DHT22;39986;50.770;0.266;2023-08-07T07:32:36;18.20;99.90
54082;DHT22;39986;50.770;0.266;2023-08-07T07:35:02;18.20;99.90
54082;DHT22;39986;50.770;0.266;2023-08-07T07:37:29;18.20;99.90
54082;DHT22;39986;50.770;0.266;2023-08-07T07:39:55;18.20;99.90
54082;DHT22;39986;50.770;0.266;2023-08-07T07:42:20;18.20;99.90
54082;DHT22;39986;50.770;0.266;2023-08-07T07:44:46;18.30;99.90
54082;DHT22;39986;50.770;0.266;2023-08-07T07:47:11;18.40;99.90
54082;DHT22;39986;50.770;0.266;2023-08-07T07:49:37;18.50;99.90
54082;DHT22;39986;50.770;0.266;2023-08-07T07:52:02;18.60;99.90
54082;DHT22;39986;50.770;0.266;2023-08-07T07:54:28;18.70;99.90
54082;DHT22;39986;50.770;0.266;2023-08-07T07:56:54;18.90;99.90
54082;DHT22;39986;50.770;0.266;2023-08-07T07:59:19;19.00;99.90
54082;DHT22;39986;50.770;0.266;2023-08-07T08:01:45;19.10;99.90
54082;DHT22;39986;50.770;0.266;2023-08-07T08:04:10;19.20;99.90
54082;DHT22;39986;50.770;0.266;2023-08-07T08:06:36;19.40;99.90
54082;DHT22;39986;50.770;0.266;2023-08-07T08:09:01;19.40;99.90
54082;DHT22;39986;50.770;0.266;2023-08-07T08:11:30;19.50;99.90
54082;DHT22;39986;50.770;0.266;2023-08-07T08:13:55;19.60;99.90
54082;DHT22;39986;50.770;0.266;2023-08-07T08:16:21;19.70;99.90
54082;DHT22;39986;50.770;0.266;2023-08-07T08:18:49;19.70;99.90
54082;DHT22;39986;50.770;0.266;2023-08-07T08:21:14;19.90;99.90
54082;DHT22;39986;50.770;0.266;2023-08-07T08:23:40;20.00;99.90
54082;DHT22;39986;50.770;0.266;2023-08-07T08:26:05;20.00;99.90
54082;DHT22;39986;50.770;0.266;2023-08-07T08:28:31;19.90;99.90
54082;DHT22;39986;50.770;0.266;2023-08-07T08:30:56;20.00;99.90
54082;DHT22;39986;50.770;0.266;2023-08-07T08:33:22;19.90;99.90
54082;DHT22;39986;50.770;0.266;2023-08-07T08:35:47;20.00;99.90
54082;DHT22;39986;50.770;0.266;2023-08-07T08:38:13;20.00;99.90
54082;DHT22;39986;50.770;0.266;2023-08-07T08:40:38;19.80;99.90
54082;DHT22;39986;50.770;0.266;2023-08-07T08:43:05;19.80;99.90
54082;DHT22;39986;50.770;0.266;2023-08-07T08:45:31;19.70;99.90
54082;DHT22;39986;50.770;0.266;2023-08-07T08:48:03;19.80;99.90
54082;DHT22;39986;50.770;0.266;2023-08-07T08:50:29;19.80;99.90
54082;DHT22;39986;50.770;0.266;2023-08-07T08:52:58;19.80;99.90
54082;DHT22;39986;50.770;0.266;2023-08-07T08:55:24;19.90;99.90
54082;DHT22;39986;50.770;0.266;2023-08-07T08:57:50;20.10;99.90
54082;DHT22;39986;50.770;0.266;2023-08-07T09:00:16;20.10;99.90
54082;DHT22;39986;50.770;0.266;2023-08-07T09:02:46;19.90;99.90
54082;DHT22;39986;50.770;0.266;2023-08-07T09:05:13;19.90;99.90
54082;DHT22;39986;50.770;0.266;2023-08-07T09:07:39;19.80;99.90
54082;DHT22;39986;50.770;0.266;2023-08-07T09:10:04;19.70;99.90
54082;DHT22;39986;50.770;0.266;2023-08-07T09:12:31;19.60;99.90
54082;DHT22;39986;50.770;0.266;2023-08-07T09:14:57;19.70;99.90
54082;DHT22;39986;50.770;0.266;2023-08-07T09:17:23;19.70;99.90
54082;DHT22;39986;50.770;0.266;2023-08-07T09:19:50;19.70;99.90
54082;DHT22;39986;50.770;0.266;2023-08-07T09:22:16;19.80;99.90
54082;DHT22;39986;50.770;0.266;2023-08-07T09:24:41;19.90;99.90
54082;DHT22;39986;50.770;0.266;2023-08-07T09:27:07;20.10;99.90
54082;DHT22;39986;50.770;0.266;2023-08-07T09:29:33;19.90;99.90
54082;DHT22;39986;50.770;0.266;2023-08-07T09:32:05;20.10;99.90
54082;DHT22;39986;50.770;0.266;2023-08-07T09:34:31;20.30;99.90
54082;DHT22;39986;50.770;0.266;2023-08-07T09:36:56;20.50;99.90
54082;DHT22;39986;50.770;0.266;2023-08-07T09:39:23;20.50;99.90
54082;DHT22;39986;50.770;0.266;2023-08-07T09:41:50;20.50;99.90
54082;DHT22;39986;50.770;0.266;2023-08-07T09:44:16;20.60;99.90
54082;DHT22;39986;50.770;0.266;2023-08-07T09:46:42;20.50;99.90
54082;DHT22;39986;50.770;0.266;2023-08-07T09:49:07;20.50;99.90
54082;DHT22;39986;50.770;0.266;2023-08-07T09:51:43;20.60;99.90
54082;DHT22;39986;50.770;0.266;2023-08-07T09:54:09;20.70;99.90
54082;DHT22;39986;50.770;0.266;2023-08-07T09:56:35;20.70;99.90
54082;DHT22;39986;50.770;0.266;2023-08-07T09:59:01;20.70;99.90
54082;DHT22;39986;50.770;0.266;2023-08-07T10:01:26;20.50;99.90
54082;DHT22;39986;50.770;0.266;2023-08-07T10:03:52;20.50;99.90
54082;DHT22;39986;50.770;0.266;2023-08-07T10:06:18;20.50;99.90
54082;DHT22;39986;50.770;0.266;2023-08-07T10:08:44;20.40;99.90
54082;DHT22;39986;50.770;0.266;2023-08-07T10:11:11;20.30;99.90
54082;DHT22;39986;50.770;0.266;2023-08-07T10:13:40;20.10;99.90
54082;DHT22;39986;50.770;0.266;2023-08-07T10:16:06;20.00;99.90
54082;DHT22;39986;50.770;0.266;2023-08-07T10:18:32;19.90;99.90
54082;DHT22;39986;50.770;0.266;2023-08-07T10:20:58;19.80;99.90
54082;DHT22;39986;50.770;0.266;2023-08-07T10:23:25;19.90;99.90
54082;DHT22;39986;50.770;0.266;2023-08-07T10:25:51;20.10;99.90
54082;DHT22;39986;50.770;0.266;2023-08-07T10:28:17;20.40;99.90
54082;DHT22;39986;50.770;0.266;2023-08-07T10:30:45;20.50;99.90
54082;DHT22;39986;50.770;0.266;2023-08-07T10:33:11;20.50;99.90
54082;DHT22;39986;50.770;0.266;2023-08-07T10:35:44;20.70;99.90
54082;DHT22;39986;50.770;0.266;2023-08-07T10:38:10;20.70;99.90
54082;DHT22;39986;50.770;0.266;2023-08-07T10:43:19;21.00;99.90
54082;DHT22;39986;50.770;0.266;2023-08-07T10:45:45;21.20;99.90
54082;DHT22;39986;50.770;0.266;2023-08-07T10:48:11;21.00;99.90
54082;DHT22;39986;50.770;0.266;2023-08-07T10:56:07;21.90;99.90
54082;DHT22;39986;50.770;0.266;2023-08-07T10:58:33;22.20;99.90
54082;DHT22;39986;50.770;0.266;2023-08-07T11:01:18;22.40;99.90
54082;DHT22;39986;50.770;0.266;2023-08-07T11:03:57;22.70;99.90
54082;DHT22;39986;50.770;0.266;2023-08-07T11:06:33;23.40;99.90
54082;DHT22;39986;50.770;0.266;2023-08-07T11:08:59;23.60;99.90
54082;DHT22;39986;50.770;0.266;2023-08-07T11:11:24;24.80;99.90
54082;DHT22;39986;50.770;0.266;2023-08-07T11:13:51;26.20;99.90
54082;DHT22;39986;50.770;0.266;2023-08-07T11:16:17;27.50;99.90
54082;DHT22;39986;50.770;0.266;2023-08-07T11:18:46;27.70;99.90
54082;DHT22;39986;50.770;0.266;2023-08-07T11:21:12;27.40;99.90
54082;DHT22;39986;50.770;0.266;2023-08-07T11:23:38;27.90;99.90
54082;DHT22;39986;50.770;0.266;2023-08-07T11:26:04;29.00;99.90
54082;DHT22;39986;50.770;0.266;2023-08-07T11:28:29;28.90;99.90
54082;DHT22;39986;50.770;0.266;2023-08-07T11:30:55;28.70;99.90
54082;DHT22;39986;50.770;0.266;2023-08-07T11:33:21;29.00;99.90
54082;DHT22;39986;50.770;0.266;2023-08-07T11:35:48;30.10;99.90
54082;DHT22;39986;50.770;0.266;2023-08-07T11:40:59;31.20;98.40
54082;DHT22;39986;50.770;0.266;2023-08-07T11:43:26;31.30;97.30
54082;DHT22;39986;50.770;0.266;2023-08-07T11:45:52;31.80;97.50
54082;DHT22;39986;50.770;0.266;2023-08-07T11:48:17;32.00;96.20
54082;DHT22;39986;50.770;0.266;2023-08-07T11:50:43;32.20;95.80
54082;DHT22;39986;50.770;0.266;2023-08-07T11:53:08;32.50;95.00
54082;DHT22;39986;50.770;0.266;2023-08-07T11:55:34;32.80;94.30
54082;DHT22;39986;50.770;0.266;2023-08-07T11:58:02;32.60;93.30
54082;DHT22;39986;50.770;0.266;2023-08-07T12:00:28;32.10;93.10
54082;DHT22;39986;50.770;0.266;2023-08-07T12:02:54;31.30;94.80
54082;DHT22;39986;50.770;0.266;2023-08-07T12:05:20;31.90;94.90
54082;DHT22;39986;50.770;0.266;2023-08-07T12:07:46;33.00;93.20
54082;DHT22;39986;50.770;0.266;2023-08-07T12:10:12;33.40;92.40
54082;DHT22;39986;50.770;0.266;2023-08-07T12:12:38;33.10;92.80
54082;DHT22;39986;50.770;0.266;2023-08-07T12:15:07;33.10;92.00
54082;DHT22;39986;50.770;0.266;2023-08-07T12:17:33;32.90;92.70
54082;DHT22;39986;50.770;0.266;2023-08-07T12:19:58;32.80;92.90
54082;DHT22;39986;50.770;0.266;2023-08-07T12:22:26;32.20;93.60
54082;DHT22;39986;50.770;0.266;2023-08-07T12:24:52;32.50;93.80
54082;DHT22;39986;50.770;0.266;2023-08-07T12:27:19;33.00;93.80
54082;DHT22;39986;50.770;0.266;2023-08-07T12:29:45;32.60;92.90
54082;DHT22;39986;50.770;0.266;2023-08-07T12:32:10;31.40;94.70
54082;DHT22;39986;50.770;0.266;2023-08-07T12:34:36;30.20;96.90
54082;DHT22;39986;50.770;0.266;2023-08-07T12:37:03;29.60;98.60
54082;DHT22;39986;50.770;0.266;2023-08-07T12:39:29;29.00;99.90
54082;DHT22;39986;50.770;0.266;2023-08-07T12:41:54;28.90;99.90
54082;DHT22;39986;50.770;0.266;2023-08-07T12:44:20;29.00;99.90
54082;DHT22;39986;50.770;0.266;2023-08-07T12:46:46;29.40;99.90
54082;DHT22;39986;50.770;0.266;2023-08-07T12:49:11;29.30;99.90
54082;DHT22;39986;50.770;0.266;2023-08-07T12:51:37;30.30;99.90
54082;DHT22;39986;50.770;0.266;2023-08-07T12:54:02;30.90;99.60
54082;DHT22;39986;50.770;0.266;2023-08-07T12:56:28;30.80;99.90
54082;DHT22;39986;50.770;0.266;2023-08-07T12:58:54;29.60;99.90
54082;DHT22;39986;50.770;0.266;2023-08-07T13:01:19;28.80;99.90
54082;DHT22;39986;50.770;0.266;2023-08-07T13:03:45;28.80;99.90
54082;DHT22;39986;50.770;0.266;2023-08-07T13:06:10;29.60;99.90
54082;DHT22;39986;50.770;0.266;2023-08-07T13:08:37;30.80;99.90
54082;DHT22;39986;50.770;0.266;2023-08-07T13:11:02;32.00;99.20
54082;DHT22;39986;50.770;0.266;2023-08-07T13:13:28;32.80;97.70
54082;DHT22;39986;50.770;0.266;2023-08-07T13:15:55;33.00;96.70
54082;DHT22;39986;50.770;0.266;2023-08-07T13:18:21;32.90;97.10
54082;DHT22;39986;50.770;0.266;2023-08-07T13:20:46;32.70;96.30
54082;DHT22;39986;50.770;0.266;2023-08-07T13:23:13;32.10;95.70
54082;DHT22;39986;50.770;0.266;2023-08-07T13:25:38;32.00;96.60
54082;DHT22;39986;50.770;0.266;2023-08-07T13:28:04;31.90;97.10
54082;DHT22;39986;50.770;0.266;2023-08-07T13:30:32;31.70;98.10
54082;DHT22;39986;50.770;0.266;2023-08-07T13:32:58;31.50;98.00
54082;DHT22;39986;50.770;0.266;2023-08-07T13:35:23;30.60;99.70
54082;DHT22;39986;50.770;0.266;2023-08-07T13:37:49;30.20;99.90
54082;DHT22;39986;50.770;0.266;2023-08-07T13:40:14;29.70;99.90
54082;DHT22;39986;50.770;0.266;2023-08-07T13:42:40;29.20;99.90
54082;DHT22;39986;50.770;0.266;2023-08-07T13:45:05;29.20;99.90
54082;DHT22;39986;50.770;0.266;2023-08-07T13:47:32;29.20;99.90
54082;DHT22;39986;50.770;0.266;2023-08-07T13:49:58;29.00;99.90
54082;DHT22;39986;50.770;0.266;2023-08-07T13:52:23;29.80;99.90
54082;DHT22;39986;50.770;0.266;2023-08-07T13:54:50;31.90;99.90
54082;DHT22;39986;50.770;0.266;2023-08-07T13:57:15;33.60;96.90
54082;DHT22;39986;50.770;0.266;2023-08-07T13:59:41;34.20;95.00
54082;DHT22;39986;50.770;0.266;2023-08-07T14:02:07;33.70;93.70
54082;DHT22;39986;50.770;0.266;2023-08-07T14:04:32;33.40;93.80
54082;DHT22;39986;50.770;0.266;2023-08-07T14:06:58;33.40;94.50
54082;DHT22;39986;50.770;0.266;2023-08-07T14:09:24;34.00;94.10
54082;DHT22;39986;50.770;0.266;2023-08-07T14:11:49;34.30;93.20
54082;DHT22;39986;50.770;0.266;2023-08-07T14:14:15;33.70;94.50
54082;DHT22;39986;50.770;0.266;2023-08-07T14:16:41;34.20;93.60
54082;DHT22;39986;50.770;0.266;2023-08-07T14:19:06;34.40;92.40
54082;DHT22;39986;50.770;0.266;2023-08-07T14:21:32;33.80;93.80
54082;DHT22;39986;50.770;0.266;2023-08-07T14:23:57;33.00;94.90
54082;DHT22;39986;50.770;0.266;2023-08-07T14:26:23;33.60;94.70
54082;DHT22;39986;50.770;0.266;2023-08-07T14:28:48;33.40;94.70
54082;DHT22;39986;50.770;0.266;2023-08-07T14:31:14;33.30;94.70
54082;DHT22;39986;50.770;0.266;2023-08-07T14:33:39;32.90;94.30
54082;DHT22;39986;50.770;0.266;2023-08-07T14:36:05;32.90;95.50
54082;DHT22;39986;50.770;0.266;2023-08-07T14:38:30;32.60;95.50
54082;DHT22;39986;50.770;0.266;2023-08-07T14:40:56;32.70;96.40
54082;DHT22;39986;50.770;0.266;2023-08-07T14:43:22;33.80;94.90
54082;DHT22;39986;50.770;0.266;2023-08-07T14:45:48;33.90;94.80
54082;DHT22;39986;50.770;0.266;2023-08-07T14:48:13;31.90;96.90
54082;DHT22;39986;50.770;0.266;2023-08-07T14:50:40;29.90;99.90
54082;DHT22;39986;50.770;0.266;2023-08-07T14:53:05;28.30;99.90
54082;DHT22;39986;50.770;0.266;2023-08-07T14:55:31;26.90;99.90
54082;DHT22;39986;50.770;0.266;2023-08-07T14:57:56;26.00;99.90
54082;DHT22;39986;50.770;0.266;2023-08-07T15:00:22;25.70;99.90
54082;DHT22;39986;50.770;0.266;2023-08-07T15:02:48;26.00;99.90
54082;DHT22;39986;50.770;0.266;2023-08-07T15:05:13;26.70;99.90
54082;DHT22;39986;50.770;0.266;2023-08-07T15:07:39;27.00;99.90
54082;DHT22;39986;50.770;0.266;2023-08-07T15:10:04;27.30;99.90
54082;DHT22;39986;50.770;0.266;2023-08-07T15:12:30;27.40;99.90
54082;DHT22;39986;50.770;0.266;2023-08-07T15:14:56;27.10;99.90
54082;DHT22;39986;50.770;0.266;2023-08-07T15:17:22;26.10;99.90
54082;DHT22;39986;50.770;0.266;2023-08-07T15:19:47;25.30;99.90
54082;DHT22;39986;50.770;0.266;2023-08-07T15:22:13;24.60;99.90
54082;DHT22;39986;50.770;0.266;2023-08-07T15:24:38;24.10;99.90
54082;DHT22;39986;50.770;0.266;2023-08-07T15:27:05;23.60;99.90
54082;DHT22;39986;50.770;0.266;2023-08-07T15:29:30;23.30;99.90
54082;DHT22;39986;50.770;0.266;2023-08-07T15:31:56;23.20;99.90
54082;DHT22;39986;50.770;0.266;2023-08-07T15:34:21;23.30;99.90
54082;DHT22;39986;50.770;0.266;2023-08-07T15:36:47;23.40;99.90